Time;durP1;ratioP1;P1;durP2;ratioP2;P2;SDS_P1;SDS_P2;PMS_P1;PMS_P2;Temp;Humidity;BMP_temperature;BMP_pressure;BME280_temperature;BME280_humidity;BME280_pressure;Samples;Min_cycle;Max_cycle;Signal;HPM_P1;HPM_P2
2023/07/03 00:00:35;;;;;;;13.38;5.97;;;;;;;;;;4957256;28;20058;-76
2023/07/03 00:03:02;;;;;;;10.85;4.93;;;;;;;;;;4957315;28;20635;-76
2023/07/03 00:05:28;;;;;;;8.75;4.80;;;;;;;;;;4974761;28;20027;-76
2023/07/03 00:07:53;;;;;;;13.00;5.68;;;;;;;;;;4974719;28;20027;-76
2023/07/03 00:10:21;;;;;;;18.45;5.80;;;;;;;;;;4974888;28;20035;-76
2023/07/03 00:12:47;;;;;;;11.57;5.78;;;;;;;;;;4957771;28;20050;-76
2023/07/03 00:15:14;;;;;;;12.10;6.03;;;;;;;;;;4976120;28;20040;-76
2023/07/03 00:17:40;;;;;;;9.60;5.70;;;;;;;;;;4978679;28;20031;-76
2023/07/03 00:20:13;;;;;;;11.75;5.38;;;;;;;;;;4960332;28;20033;-75
2023/07/03 00:22:39;;;;;;;11.90;5.97;;;;;;;;;;4958789;28;20026;-77
2023/07/03 00:25:05;;;;;;;10.80;5.30;;;;;;;;;;4975704;28;20695;-77
2023/07/03 00:27:30;;;;;;;9.77;5.63;;;;;;;;;;4954769;29;20119;-75
2023/07/03 00:29:55;;;;;;;10.20;5.68;;;;;;;;;;4955076;29;20117;-75
2023/07/03 00:32:21;;;;;;;12.77;5.95;;;;;;;;;;4955781;28;20031;-76
2023/07/03 00:34:47;;;;;;;12.65;5.40;;;;;;;;;;4954851;28;20038;-76
2023/07/03 00:37:14;;;;;;;8.40;5.07;;;;;;;;;;4954619;29;20027;-75
2023/07/03 00:39:39;;;;;;;16.98;6.15;;;;;;;;;;4957805;29;20059;-76
2023/07/03 00:42:05;;;;;;;13.00;5.82;;;;;;;;;;4960243;28;20049;-76
2023/07/03 00:44:31;;;;;;;12.48;6.60;;;;;;;;;;4963574;28;20066;-77
2023/07/03 00:46:56;;;;;;;13.07;5.80;;;;;;;;;;4964597;29;20027;-76
2023/07/03 00:49:22;;;;;;;13.40;5.95;;;;;;;;;;4974070;28;20493;-76
2023/07/03 00:51:54;;;;;;;13.57;6.43;;;;;;;;;;4957380;28;20027;-76
2023/07/03 00:54:20;;;;;;;13.40;6.20;;;;;;;;;;4954980;28;20041;-77
2023/07/03 00:56:46;;;;;;;12.57;5.47;;;;;;;;;;4956073;29;20480;-78
2023/07/03 00:59:12;;;;;;;13.95;6.18;;;;;;;;;;4956796;28;20420;-78
2023/07/03 01:02:00;;;;;;;12.50;6.43;;;;;;;;;;4955303;29;20027;-77
2023/07/03 01:04:31;;;;;;;17.27;7.00;;;;;;;;;;4955409;28;20039;-78
2023/07/03 01:07:01;;;;;;;11.05;5.80;;;;;;;;;;4953234;29;20016;-78
2023/07/03 01:09:42;;;;;;;16.40;6.45;;;;;;;;;;4953596;29;20416;-78
2023/07/03 01:12:10;;;;;;;13.73;6.72;;;;;;;;;;4954351;28;20027;-77
2023/07/03 01:14:38;;;;;;;11.23;6.13;;;;;;;;;;4953285;29;20034;-76
2023/07/03 01:17:09;;;;;;;12.05;6.60;;;;;;;;;;4954579;28;20042;-77
2023/07/03 01:19:37;;;;;;;14.98;6.35;;;;;;;;;;4954415;29;20484;-78
2023/07/03 01:22:27;;;;;;;14.70;6.25;;;;;;;;;;4960466;28;20090;-78
2023/07/03 01:24:57;;;;;;;14.15;6.20;;;;;;;;;;4955068;28;20111;-77
2023/07/03 01:27:26;;;;;;;13.45;6.57;;;;;;;;;;4952376;29;20043;-78
2023/07/03 01:29:53;;;;;;;12.82;6.25;;;;;;;;;;4955193;29;20143;-78
2023/07/03 01:32:21;;;;;;;15.45;6.75;;;;;;;;;;4956855;29;20026;-78
2023/07/03 01:34:48;;;;;;;10.75;6.25;;;;;;;;;;4945660;29;20038;-78
2023/07/03 01:37:14;;;;;;;12.88;6.28;;;;;;;;;;4975583;29;20016;-77
2023/07/03 01:39:43;;;;;;;15.48;7.07;;;;;;;;;;4973618;29;20030;-76
2023/07/03 01:42:10;;;;;;;15.50;7.05;;;;;;;;;;4954776;29;20031;-76
2023/07/03 01:44:36;;;;;;;15.02;6.68;;;;;;;;;;4936345;29;20035;-77
2023/07/03 01:47:07;;;;;;;15.95;7.55;;;;;;;;;;4936213;29;20034;-76
2023/07/03 01:49:33;;;;;;;16.42;7.78;;;;;;;;;;4953346;29;20126;-77
2023/07/03 01:52:22;;;;;;;15.50;7.07;;;;;;;;;;4935864;29;20062;-77
2023/07/03 01:55:19;;;;;;;16.30;7.55;;;;;;;;;;4953396;29;20472;-78
2023/07/03 01:57:52;;;;;;;12.50;6.47;;;;;;;;;;4953290;29;20441;-78
2023/07/03 02:00:26;;;;;;;13.73;7.25;;;;;;;;;;4936100;29;20051;-79
2023/07/03 02:02:54;;;;;;;14.73;7.13;;;;;;;;;;4935822;29;20037;-78
2023/07/03 02:05:27;;;;;;;13.82;6.65;;;;;;;;;;4934840;29;20031;-79
2023/07/03 02:07:57;;;;;;;16.23;6.90;;;;;;;;;;4936033;29;20376;-78
2023/07/03 02:10:23;;;;;;;15.80;7.57;;;;;;;;;;4935593;29;20031;-76
2023/07/03 02:12:48;;;;;;;15.98;7.60;;;;;;;;;;4952811;29;20086;-76
2023/07/03 02:15:14;;;;;;;13.00;6.30;;;;;;;;;;4952672;29;20027;-76
2023/07/03 02:17:41;;;;;;;20.17;7.57;;;;;;;;;;4952768;29;20465;-77
2023/07/03 02:20:13;;;;;;;14.98;7.78;;;;;;;;;;4953344;29;20078;-76
2023/07/03 02:22:40;;;;;;;16.60;7.22;;;;;;;;;;4953153;29;20499;-79
2023/07/03 02:25:05;;;;;;;15.55;7.65;;;;;;;;;;4935979;29;20077;-78
2023/07/03 02:27:31;;;;;;;13.13;6.72;;;;;;;;;;4971170;28;20046;-78
2023/07/03 02:29:56;;;;;;;17.75;7.47;;;;;;;;;;4972634;28;20159;-78
2023/07/03 02:32:22;;;;;;;14.88;7.72;;;;;;;;;;4954950;28;20033;-77
2023/07/03 02:34:49;;;;;;;16.48;6.97;;;;;;;;;;4954638;28;20035;-77
2023/07/03 02:37:14;;;;;;;14.88;7.57;;;;;;;;;;4953990;28;20035;-78
2023/07/03 02:39:40;;;;;;;14.25;7.55;;;;;;;;;;4954498;28;20031;-78
2023/07/03 02:42:05;;;;;;;18.10;7.90;;;;;;;;;;4954540;28;20027;-79
2023/07/03 02:44:31;;;;;;;19.00;7.18;;;;;;;;;;4972064;28;20026;-78
2023/07/03 02:46:56;;;;;;;17.88;7.18;;;;;;;;;;4971964;28;20102;-79
2023/07/03 02:49:28;;;;;;;16.60;7.82;;;;;;;;;;4971726;28;20364;-79
2023/07/03 02:51:53;;;;;;;16.88;7.80;;;;;;;;;;4972194;28;20026;-79
2023/07/03 02:54:19;;;;;;;16.75;7.57;;;;;;;;;;4971837;28;20383;-78
2023/07/03 02:56:44;;;;;;;13.75;7.28;;;;;;;;;;4972061;28;20030;-79
2023/07/03 02:59:11;;;;;;;17.02;7.40;;;;;;;;;;4954412;28;20038;-79
2023/07/03 03:01:37;;;;;;;17.35;7.88;;;;;;;;;;4972010;28;20472;-79
2023/07/03 03:04:03;;;;;;;15.27;7.40;;;;;;;;;;4972312;28;20133;-79
2023/07/03 03:06:28;;;;;;;15.13;7.63;;;;;;;;;;4954244;28;20578;-78
2023/07/03 03:08:53;;;;;;;14.35;8.02;;;;;;;;;;4954277;28;20030;-78
2023/07/03 03:11:19;;;;;;;16.67;7.72;;;;;;;;;;4971331;28;20059;-77
2023/07/03 03:13:44;;;;;;;17.52;8.23;;;;;;;;;;4971332;28;20042;-77
2023/07/03 03:16:10;;;;;;;16.05;7.78;;;;;;;;;;4957977;28;20405;-77
2023/07/03 03:18:35;;;;;;;16.42;8.25;;;;;;;;;;4956144;29;20035;-77
2023/07/03 03:21:01;;;;;;;20.02;8.07;;;;;;;;;;4938676;29;20327;-78
2023/07/03 03:23:26;;;;;;;14.35;7.55;;;;;;;;;;4938665;29;20035;-77
2023/07/03 03:25:52;;;;;;;19.48;8.13;;;;;;;;;;4958194;29;20114;-77
2023/07/03 03:28:17;;;;;;;22.08;7.57;;;;;;;;;;4956892;29;20055;-77
2023/07/03 03:30:43;;;;;;;16.90;8.35;;;;;;;;;;4956119;29;20035;-77
2023/07/03 03:33:08;;;;;;;16.92;7.65;;;;;;;;;;4938499;29;20039;-77
2023/07/03 03:35:34;;;;;;;18.63;8.10;;;;;;;;;;4938383;29;20055;-78
2023/07/03 03:37:59;;;;;;;18.15;8.73;;;;;;;;;;4955440;29;20028;-77
2023/07/03 03:40:25;;;;;;;16.50;7.82;;;;;;;;;;4938161;29;20033;-76
2023/07/03 03:42:50;;;;;;;18.45;7.88;;;;;;;;;;4938227;29;20031;-77
2023/07/03 03:45:16;;;;;;;21.17;8.82;;;;;;;;;;4955969;29;20031;-78
2023/07/03 03:47:41;;;;;;;17.35;7.70;;;;;;;;;;4938436;29;20621;-77
2023/07/03 03:50:07;;;;;;;17.30;8.02;;;;;;;;;;4938350;29;20434;-77
2023/07/03 03:52:33;;;;;;;15.93;8.13;;;;;;;;;;4954630;29;20023;-76
2023/07/03 03:54:59;;;;;;;17.95;8.27;;;;;;;;;;4955970;29;20093;-77
2023/07/03 03:57:25;;;;;;;20.33;8.20;;;;;;;;;;4955534;29;20035;-77
2023/07/03 03:59:50;;;;;;;16.33;7.82;;;;;;;;;;4956736;29;20035;-78
2023/07/03 04:02:16;;;;;;;20.33;9.07;;;;;;;;;;4937893;29;20026;-77
2023/07/03 04:04:41;;;;;;;19.65;8.80;;;;;;;;;;4938196;29;20023;-76
2023/07/03 04:07:07;;;;;;;14.75;8.13;;;;;;;;;;4956611;29;20732;-76
2023/07/03 04:09:32;;;;;;;18.63;9.98;;;;;;;;;;4938112;29;20035;-76
2023/07/03 04:11:58;;;;;;;18.35;9.10;;;;;;;;;;4953902;28;20118;-77
2023/07/03 04:14:23;;;;;;;15.02;8.23;;;;;;;;;;4955280;29;20031;-78
2023/07/03 04:16:50;;;;;;;18.90;8.75;;;;;;;;;;4954505;29;20464;-78
2023/07/03 04:19:18;;;;;;;18.80;8.68;;;;;;;;;;4955397;29;20712;-76
2023/07/03 04:21:44;;;;;;;25.65;9.15;;;;;;;;;;4938399;29;20035;-77
2023/07/03 04:24:10;;;;;;;17.30;8.55;;;;;;;;;;4955095;28;20031;-77
2023/07/03 04:26:38;;;;;;;21.77;9.02;;;;;;;;;;4954413;28;20059;-77
2023/07/03 04:29:04;;;;;;;14.90;8.68;;;;;;;;;;4937001;29;20058;-76
2023/07/03 04:31:31;;;;;;;23.02;8.80;;;;;;;;;;4937312;29;20392;-77
2023/07/03 04:33:57;;;;;;;26.63;9.52;;;;;;;;;;4955023;29;20051;-76
2023/07/03 04:36:22;;;;;;;19.92;9.20;;;;;;;;;;4937465;29;20066;-77
2023/07/03 04:38:48;;;;;;;21.92;8.55;;;;;;;;;;4954716;29;20570;-77
2023/07/03 04:41:15;;;;;;;21.42;9.00;;;;;;;;;;4953064;29;20057;-77
2023/07/03 04:43:48;;;;;;;22.65;9.45;;;;;;;;;;4937358;29;20039;-77
2023/07/03 04:46:15;;;;;;;21.05;9.48;;;;;;;;;;4954776;29;20029;-78
2023/07/03 04:48:41;;;;;;;17.45;8.43;;;;;;;;;;4954589;29;20027;-77
2023/07/03 04:51:08;;;;;;;18.10;8.13;;;;;;;;;;4957693;29;20147;-77
2023/07/03 04:53:39;;;;;;;17.60;8.80;;;;;;;;;;4948178;29;20082;-78
2023/07/03 04:56:05;;;;;;;18.55;8.60;;;;;;;;;;4940383;29;20118;-76
2023/07/03 04:58:30;;;;;;;21.45;9.88;;;;;;;;;;4954427;28;20154;-78
2023/07/03 05:00:56;;;;;;;20.25;8.75;;;;;;;;;;4937652;29;20051;-78
2023/07/03 05:03:21;;;;;;;19.88;9.55;;;;;;;;;;4937563;29;20027;-77
2023/07/03 05:05:47;;;;;;;16.65;8.07;;;;;;;;;;4954649;29;20034;-76
2023/07/03 05:08:12;;;;;;;16.95;9.23;;;;;;;;;;4936729;29;20019;-77
2023/07/03 05:10:38;;;;;;;18.80;8.65;;;;;;;;;;4954385;29;20023;-77
2023/07/03 05:13:03;;;;;;;21.17;9.32;;;;;;;;;;4937322;29;20353;-77
2023/07/03 05:15:31;;;;;;;17.77;9.00;;;;;;;;;;4954926;29;20479;-78
2023/07/03 05:17:57;;;;;;;19.10;9.07;;;;;;;;;;4942637;29;20031;-79
2023/07/03 05:20:25;;;;;;;19.75;9.00;;;;;;;;;;4931752;28;20027;-77
2023/07/03 05:22:51;;;;;;;20.30;9.57;;;;;;;;;;4960317;28;20534;-77
2023/07/03 05:25:18;;;;;;;20.92;9.05;;;;;;;;;;4943286;29;20031;-78
2023/07/03 05:27:44;;;;;;;20.20;8.82;;;;;;;;;;4931624;29;20036;-80
2023/07/03 05:30:10;;;;;;;23.77;9.32;;;;;;;;;;4937646;28;20049;-78
2023/07/03 05:32:36;;;;;;;24.88;10.10;;;;;;;;;;4966704;29;20062;-78
2023/07/03 05:35:04;;;;;;;25.17;13.00;;;;;;;;;;4952263;29;20066;-77
2023/07/03 05:37:30;;;;;;;22.55;9.00;;;;;;;;;;4956596;29;20027;-78
2023/07/03 05:39:56;;;;;;;22.15;10.00;;;;;;;;;;4957687;28;20454;-78
2023/07/03 05:42:22;;;;;;;25.98;10.25;;;;;;;;;;4957369;29;20035;-79
2023/07/03 05:44:49;;;;;;;24.92;11.05;;;;;;;;;;4949185;29;20027;-78
2023/07/03 05:47:15;;;;;;;24.63;11.18;;;;;;;;;;4957942;29;20102;-79
2023/07/03 05:49:42;;;;;;;21.38;10.02;;;;;;;;;;4952447;29;20018;-78
2023/07/03 05:52:09;;;;;;;23.88;9.90;;;;;;;;;;4960219;29;20036;-77
2023/07/03 05:54:35;;;;;;;22.77;10.25;;;;;;;;;;4963141;28;20027;-77
2023/07/03 05:57:07;;;;;;;19.92;9.38;;;;;;;;;;4942450;29;20020;-79
2023/07/03 05:59:33;;;;;;;;;;;;;;;;;;4944942;29;20047;-78
2023/07/03 06:01:58;;;;;;;23.70;11.20;;;;;;;;;;4932960;29;20338;-80
2023/07/03 06:04:25;;;;;;;18.98;9.48;;;;;;;;;;4939755;28;20023;-80
2023/07/03 06:06:55;;;;;;;21.00;9.40;;;;;;;;;;4938300;29;20173;-78
2023/07/03 06:09:25;;;;;;;19.80;8.90;;;;;;;;;;4949143;29;20134;-78
2023/07/03 06:11:59;;;;;;;22.27;9.40;;;;;;;;;;4933498;29;20145;-77
2023/07/03 06:14:25;;;;;;;19.38;8.18;;;;;;;;;;4948582;28;20463;-77
2023/07/03 06:16:52;;;;;;;16.10;9.00;;;;;;;;;;4950402;28;20035;-79
2023/07/03 06:19:19;;;;;;;20.77;9.00;;;;;;;;;;4931755;29;20395;-82
2023/07/03 06:21:47;;;;;;;22.88;8.77;;;;;;;;;;4930674;29;20070;-77
2023/07/03 06:24:19;;;;;;;20.25;9.10;;;;;;;;;;4935494;28;20062;-81
2023/07/03 06:26:44;;;;;;;21.75;9.55;;;;;;;;;;4939536;28;20043;-79
2023/07/03 06:29:12;;;;;;;21.02;9.43;;;;;;;;;;4959687;28;20382;-80
2023/07/03 06:31:38;;;;;;;20.15;9.85;;;;;;;;;;4933959;29;20027;-77
2023/07/03 06:34:04;;;;;;;22.27;8.43;;;;;;;;;;4929923;29;20031;-79
2023/07/03 06:36:31;;;;;;;17.85;8.23;;;;;;;;;;4926822;29;20042;-77
2023/07/03 06:38:59;;;;;;;16.77;8.55;;;;;;;;;;4930910;29;20452;-80
2023/07/03 06:41:31;;;;;;;19.30;8.88;;;;;;;;;;4948623;29;20035;-78
2023/07/03 06:43:57;;;;;;;22.00;8.63;;;;;;;;;;4935926;28;20041;-79
2023/07/03 06:46:23;;;;;;;23.83;8.13;;;;;;;;;;4945856;29;20384;-79
2023/07/03 06:48:49;;;;;;;26.85;7.63;;;;;;;;;;4949793;28;20064;-78
2023/07/03 06:51:16;;;;;;;15.88;7.60;;;;;;;;;;4925898;28;20031;-78
2023/07/03 06:53:41;;;;;;;20.50;7.60;;;;;;;;;;4954553;28;20529;-79
2023/07/03 06:56:07;;;;;;;14.98;6.90;;;;;;;;;;4932540;29;20043;-81
2023/07/03 06:58:34;;;;;;;20.13;7.85;;;;;;;;;;4948972;29;20031;-80
2023/07/03 07:01:11;;;;;;;17.90;7.85;;;;;;;;;;4938412;28;20028;-79
2023/07/03 07:03:39;;;;;;;18.20;8.02;;;;;;;;;;4947487;28;20084;-76
2023/07/03 07:06:14;;;;;;;14.98;7.35;;;;;;;;;;4933666;29;20191;-79
2023/07/03 07:08:40;;;;;;;17.13;6.88;;;;;;;;;;4944414;28;20058;-79
2023/07/03 07:11:31;;;;;;;19.30;6.97;;;;;;;;;;4926697;29;20059;-75
2023/07/03 07:13:58;;;;;;;17.98;7.78;;;;;;;;;;4925425;29;20192;-80
2023/07/03 07:16:27;;;;;;;18.02;7.47;;;;;;;;;;4949196;29;20477;-77
2023/07/03 07:18:56;;;;;;;21.17;7.47;;;;;;;;;;4942331;29;20381;-81
2023/07/03 07:21:23;;;;;;;16.80;6.72;;;;;;;;;;4940608;28;20052;-79
2023/07/03 07:23:51;;;;;;;15.57;6.45;;;;;;;;;;4947376;28;20641;-77
2023/07/03 07:26:17;;;;;;;20.02;7.13;;;;;;;;;;4947863;29;20555;-76
2023/07/03 07:28:42;;;;;;;21.30;7.43;;;;;;;;;;4937281;29;20058;-79
2023/07/03 07:31:08;;;;;;;14.80;6.63;;;;;;;;;;4945118;29;20031;-76
2023/07/03 07:33:35;;;;;;;14.55;6.57;;;;;;;;;;4936697;28;20162;-78
2023/07/03 07:36:00;;;;;;;19.17;7.05;;;;;;;;;;4934760;29;20034;-79
2023/07/03 07:38:26;;;;;;;21.15;7.88;;;;;;;;;;4955259;29;20047;-81
2023/07/03 07:41:02;;;;;;;22.70;8.10;;;;;;;;;;4953721;29;20056;-76
2023/07/03 07:43:28;;;;;;;18.58;7.78;;;;;;;;;;4940593;28;20031;-79
2023/07/03 07:45:53;;;;;;;14.55;6.28;;;;;;;;;;4946787;28;20028;-81
2023/07/03 07:48:19;;;;;;;13.82;6.22;;;;;;;;;;4927982;29;20027;-79
2023/07/03 07:50:44;;;;;;;20.48;7.38;;;;;;;;;;4927410;29;20388;-78
2023/07/03 07:53:11;;;;;;;17.77;6.97;;;;;;;;;;4945369;28;20110;-79
2023/07/03 07:55:37;;;;;;;16.50;7.63;;;;;;;;;;4927626;29;20738;-78
2023/07/03 07:58:02;;;;;;;15.95;7.45;;;;;;;;;;4930035;28;20043;-78
2023/07/03 08:00:28;;;;;;;16.92;7.63;;;;;;;;;;4941065;28;20030;-77
2023/07/03 08:02:54;;;;;;;17.88;8.07;;;;;;;;;;4946883;28;20023;-79
2023/07/03 08:05:20;;;;;;;16.65;6.50;;;;;;;;;;4940826;28;20050;-78
2023/07/03 08:07:46;;;;;;;17.02;6.95;;;;;;;;;;4927560;29;20024;-76
2023/07/03 08:10:14;;;;;;;16.40;7.78;;;;;;;;;;4930849;29;20035;-81
2023/07/03 08:12:41;;;;;;;18.13;7.35;;;;;;;;;;4947483;28;20029;-76
2023/07/03 08:15:07;;;;;;;17.63;7.88;;;;;;;;;;4934257;28;20475;-75
2023/07/03 08:17:33;;;;;;;19.33;7.78;;;;;;;;;;4952405;28;20122;-77
2023/07/03 08:19:59;;;;;;;16.92;7.00;;;;;;;;;;4946713;29;20086;-80
2023/07/03 08:22:24;;;;;;;15.70;6.82;;;;;;;;;;4934000;29;20447;-82
2023/07/03 08:24:50;;;;;;;18.65;7.40;;;;;;;;;;4942643;28;20594;-79
2023/07/03 08:27:15;;;;;;;17.42;7.15;;;;;;;;;;4931653;29;20751;-80
2023/07/03 08:29:41;;;;;;;21.15;7.40;;;;;;;;;;4927818;29;20544;-81
2023/07/03 08:32:09;;;;;;;18.55;7.90;;;;;;;;;;4943539;29;20048;-77
2023/07/03 08:34:35;;;;;;;15.75;7.45;;;;;;;;;;4931806;29;20036;-77
2023/07/03 08:37:02;;;;;;;18.02;6.63;;;;;;;;;;4942678;28;20429;-80
2023/07/03 08:39:28;;;;;;;17.77;6.82;;;;;;;;;;4933023;29;20031;-78
2023/07/03 08:42:20;;;;;;;17.58;6.75;;;;;;;;;;4933689;29;20079;-78
2023/07/03 08:44:46;;;;;;;18.15;6.90;;;;;;;;;;4927342;29;20042;-82
2023/07/03 08:47:17;;;;;;;14.38;6.30;;;;;;;;;;4930425;29;20098;-77
2023/07/03 08:49:44;;;;;;;;;;;;;;;;;;4931435;29;20090;-78
2023/07/03 08:52:11;;;;;;;20.33;7.85;;;;;;;;;;4942679;28;20013;-78
2023/07/03 08:54:40;;;;;;;17.42;7.38;;;;;;;;;;4932378;29;20035;-77
2023/07/03 08:57:12;;;;;;;20.42;6.97;;;;;;;;;;4908524;29;20043;-77
2023/07/03 08:59:39;;;;;;;17.70;7.57;;;;;;;;;;4925678;29;20097;-78
2023/07/03 09:02:15;;;;;;;15.70;7.72;;;;;;;;;;4924557;29;20404;-77
2023/07/03 09:05:28;;;;;;;18.42;7.30;;;;;;;;;;4927509;29;20036;-79
2023/07/03 09:08:01;;;;;;;23.15;6.85;;;;;;;;;;4924370;29;20044;-77
2023/07/03 09:10:33;;;;;;;17.27;8.20;;;;;;;;;;4939642;29;20035;-77
2023/07/03 09:13:12;;;;;;;19.27;8.77;;;;;;;;;;4931356;29;20071;-78
2023/07/03 09:16:03;;;;;;;17.73;7.25;;;;;;;;;;4933375;29;20099;-79
2023/07/03 09:18:37;;;;;;;16.63;7.45;;;;;;;;;;4923688;29;20659;-80
2023/07/03 09:21:03;;;;;;;20.40;8.63;;;;;;;;;;4929918;29;20039;-80
2023/07/03 09:23:40;;;;;;;22.95;9.13;;;;;;;;;;4928327;29;20038;-79
2023/07/03 09:26:40;;;;;;;18.40;7.43;;;;;;;;;;4916088;29;20500;-81
2023/07/03 09:29:06;;;;;;;19.27;8.70;;;;;;;;;;4932972;29;20040;-81
2023/07/03 09:31:32;;;;;;;18.65;8.15;;;;;;;;;;4894857;29;20567;-78
2023/07/03 09:33:59;;;;;;;20.50;8.82;;;;;;;;;;4931940;29;20043;-79
2023/07/03 09:36:37;;;;;;;19.92;7.65;;;;;;;;;;4913887;29;20426;-78
2023/07/03 09:39:14;;;;;;;18.65;8.23;;;;;;;;;;4928196;29;20050;-78
2023/07/03 09:41:49;;;;;;;21.27;8.38;;;;;;;;;;4920503;29;20035;-79
2023/07/03 09:44:20;;;;;;;16.33;7.78;;;;;;;;;;4913214;29;20031;-79
2023/07/03 09:46:46;;;;;;;18.05;8.10;;;;;;;;;;4933042;29;20063;-78
2023/07/03 09:49:20;;;;;;;20.38;8.95;;;;;;;;;;4917983;29;20039;-76
2023/07/03 09:51:50;;;;;;;18.67;7.85;;;;;;;;;;4910885;29;20432;-79
2023/07/03 09:54:24;;;;;;;16.90;7.60;;;;;;;;;;4930983;29;20038;-79
2023/07/03 09:56:56;;;;;;;22.00;9.07;;;;;;;;;;4924427;29;20032;-78
2023/07/03 09:59:24;;;;;;;18.95;8.10;;;;;;;;;;4925008;29;20489;-78
2023/07/03 10:01:55;;;;;;;15.10;7.38;;;;;;;;;;4945863;29;20023;-78
2023/07/03 10:04:25;;;;;;;17.92;7.97;;;;;;;;;;4929959;29;20011;-79
2023/07/03 10:07:00;;;;;;;16.03;8.23;;;;;;;;;;4928090;29;20032;-82
2023/07/03 10:09:31;;;;;;;18.13;9.02;;;;;;;;;;4938798;29;20043;-79
2023/07/03 10:12:11;;;;;;;14.65;8.02;;;;;;;;;;4932634;29;20350;-79
2023/07/03 10:14:57;;;;;;;21.00;9.02;;;;;;;;;;4906019;29;20044;-77
2023/07/03 10:17:34;;;;;;;20.38;8.68;;;;;;;;;;4948458;29;20042;-80
2023/07/03 10:20:13;;;;;;;17.77;7.55;;;;;;;;;;4944508;29;20036;-82
2023/07/03 10:22:42;;;;;;;20.42;8.95;;;;;;;;;;4948690;29;20091;-77
2023/07/03 10:25:15;;;;;;;17.88;8.57;;;;;;;;;;4934154;29;20036;-79
2023/07/03 10:27:41;;;;;;;19.65;7.97;;;;;;;;;;4946733;29;20066;-79
2023/07/03 10:30:11;;;;;;;17.52;7.97;;;;;;;;;;4969866;28;20035;-78
2023/07/03 10:32:39;;;;;;;14.20;7.50;;;;;;;;;;4958770;29;20042;-78
2023/07/03 10:35:22;;;;;;;18.50;7.85;;;;;;;;;;4967151;28;20114;-79
2023/07/03 10:37:55;;;;;;;21.85;7.93;;;;;;;;;;4949601;29;20035;-81
2023/07/03 10:40:36;;;;;;;17.00;7.85;;;;;;;;;;4935707;29;20175;-79
2023/07/03 10:43:04;;;;;;;16.50;7.72;;;;;;;;;;4944299;28;20034;-83
2023/07/03 10:45:34;;;;;;;16.48;7.35;;;;;;;;;;4943862;28;20047;-79
2023/07/03 10:48:14;;;;;;;19.75;7.75;;;;;;;;;;4957850;28;20027;-78
2023/07/03 10:50:49;;;;;;;23.95;8.68;;;;;;;;;;4965489;29;20078;-78
2023/07/03 10:53:25;;;;;;;15.70;7.60;;;;;;;;;;4965923;28;20038;-79
2023/07/03 10:56:19;;;;;;;22.40;9.63;;;;;;;;;;4954434;29;20157;-78
2023/07/03 10:59:20;;;;;;;19.08;7.72;;;;;;;;;;4944873;29;20648;-79
2023/07/03 11:02:11;;;;;;;21.42;9.00;;;;;;;;;;4951399;29;20367;-79
2023/07/03 11:04:55;;;;;;;19.33;8.50;;;;;;;;;;4950435;28;20062;-78
2023/07/03 11:07:29;;;;;;;18.15;8.88;;;;;;;;;;4949353;29;20094;-78
2023/07/03 11:10:30;;;;;;;17.67;7.63;;;;;;;;;;4945973;29;20121;-79
2023/07/03 11:13:21;;;;;;;18.45;7.97;;;;;;;;;;4946162;29;20028;-79
2023/07/03 11:16:11;;;;;;;18.25;8.15;;;;;;;;;;4949617;28;20035;-77
2023/07/03 11:19:04;;;;;;;18.63;7.35;;;;;;;;;;4919947;29;20070;-78
2023/07/03 11:21:53;;;;;;;15.18;7.60;;;;;;;;;;4943343;29;20114;-78
2023/07/03 11:24:24;;;;;;;14.50;7.78;;;;;;;;;;4924236;29;20039;-78
2023/07/03 11:27:07;;;;;;;18.08;8.10;;;;;;;;;;4943065;28;20047;-80
2023/07/03 11:29:34;;;;;;;12.05;6.90;;;;;;;;;;4933634;29;20047;-78
2023/07/03 11:32:02;;;;;;;16.42;7.85;;;;;;;;;;4953632;28;20071;-82
2023/07/03 11:34:28;;;;;;;18.17;7.22;;;;;;;;;;4936097;29;20162;-79
2023/07/03 11:36:55;;;;;;;15.18;6.53;;;;;;;;;;4918823;29;20066;-80
2023/07/03 11:39:29;;;;;;;16.13;6.88;;;;;;;;;;4950363;29;20083;-79
2023/07/03 11:41:54;;;;;;;18.25;7.72;;;;;;;;;;4954695;29;20158;-81
2023/07/03 11:44:33;;;;;;;20.98;8.35;;;;;;;;;;4940805;29;20070;-81
2023/07/03 11:47:30;;;;;;;14.43;7.03;;;;;;;;;;4927371;29;20134;-77
2023/07/03 11:50:05;;;;;;;16.83;7.13;;;;;;;;;;4946034;28;20838;-78
2023/07/03 11:52:38;;;;;;;17.88;6.72;;;;;;;;;;4947457;29;20114;-79
2023/07/03 11:55:08;;;;;;;13.98;6.43;;;;;;;;;;4949767;28;20016;-78
2023/07/03 11:57:39;;;;;;;15.25;6.68;;;;;;;;;;4945272;28;20106;-79
2023/07/03 12:00:32;;;;;;;13.70;6.65;;;;;;;;;;4935622;29;20070;-82
2023/07/03 12:03:06;;;;;;;15.63;7.22;;;;;;;;;;4948212;28;20528;-81
2023/07/03 12:05:44;;;;;;;16.83;7.05;;;;;;;;;;4934947;29;20420;-80
2023/07/03 12:08:18;;;;;;;15.65;7.30;;;;;;;;;;4952488;29;20027;-79
2023/07/03 12:10:53;;;;;;;16.80;7.35;;;;;;;;;;4961411;28;20027;-81
2023/07/03 12:13:42;;;;;;;13.48;6.75;;;;;;;;;;4951533;29;20020;-80
2023/07/03 12:16:29;;;;;;;16.70;7.22;;;;;;;;;;4932423;29;20023;-78
2023/07/03 12:19:11;;;;;;;17.45;7.57;;;;;;;;;;4948331;28;20043;-77
2023/07/03 12:21:44;;;;;;;12.93;6.68;;;;;;;;;;4945631;29;20031;-78
2023/07/03 12:24:26;;;;;;;15.30;6.53;;;;;;;;;;4957083;28;20031;-78
2023/07/03 12:27:25;;;;;;;12.07;6.15;;;;;;;;;;4943923;29;20062;-76
2023/07/03 12:29:50;;;;;;;12.85;5.70;;;;;;;;;;4920733;29;20082;-81
2023/07/03 12:32:34;;;;;;;15.30;6.93;;;;;;;;;;4927743;29;20031;-77
2023/07/03 12:35:26;;;;;;;14.98;6.60;;;;;;;;;;4918463;29;20122;-76
2023/07/03 12:37:53;;;;;;;15.70;6.35;;;;;;;;;;4941185;29;20039;-77
2023/07/03 12:40:21;;;;;;;13.00;6.32;;;;;;;;;;4915044;28;20039;-77
2023/07/03 12:42:48;;;;;;;13.38;5.95;;;;;;;;;;4909215;29;20027;-78
2023/07/03 12:45:29;;;;;;;11.00;5.57;;;;;;;;;;4931574;29;20468;-78
2023/07/03 12:48:10;;;;;;;12.45;6.25;;;;;;;;;;4945378;28;20067;-79
2023/07/03 12:50:49;;;;;;;10.25;5.43;;;;;;;;;;4948350;28;20027;-78
2023/07/03 12:53:16;;;;;;;14.60;6.88;;;;;;;;;;4932635;29;20035;-79
2023/07/03 12:55:44;;;;;;;15.23;6.57;;;;;;;;;;4944301;29;20027;-76
2023/07/03 12:58:11;;;;;;;12.60;6.22;;;;;;;;;;4940391;29;20492;-77
2023/07/03 13:00:37;;;;;;;15.13;6.28;;;;;;;;;;4948187;28;20059;-80
2023/07/03 13:03:13;;;;;;;15.00;6.07;;;;;;;;;;4922766;29;20039;-77
2023/07/03 13:05:39;;;;;;;12.10;5.70;;;;;;;;;;4940172;29;20389;-77
2023/07/03 13:08:12;;;;;;;16.63;6.65;;;;;;;;;;4913862;29;20034;-78
2023/07/03 13:10:38;;;;;;;14.15;6.28;;;;;;;;;;4914359;29;20129;-78
2023/07/03 13:13:17;;;;;;;14.20;5.57;;;;;;;;;;4926212;29;20110;-77
2023/07/03 13:15:44;;;;;;;12.02;5.93;;;;;;;;;;4921934;29;20030;-77
2023/07/03 13:18:13;;;;;;;12.70;6.15;;;;;;;;;;4944422;29;20395;-78
2023/07/03 13:20:40;;;;;;;11.60;5.78;;;;;;;;;;4930877;28;20049;-77
2023/07/03 13:23:11;;;;;;;15.38;5.68;;;;;;;;;;4947605;28;20035;-78
2023/07/03 13:25:51;;;;;;;10.77;5.90;;;;;;;;;;4934447;29;20070;-77
2023/07/03 13:28:32;;;;;;;13.70;6.40;;;;;;;;;;4949153;29;20043;-77
2023/07/03 13:31:13;;;;;;;11.75;6.20;;;;;;;;;;4959877;28;20078;-77
2023/07/03 13:33:40;;;;;;;11.90;6.07;;;;;;;;;;4945305;29;20337;-80
2023/07/03 13:36:40;;;;;;;18.55;6.80;;;;;;;;;;4930806;29;20555;-77
2023/07/03 13:39:14;;;;;;;11.32;5.75;;;;;;;;;;4894801;28;20043;-80
2023/07/03 13:41:58;;;;;;;15.52;5.70;;;;;;;;;;4945524;28;20396;-78
2023/07/03 13:44:24;;;;;;;14.55;5.88;;;;;;;;;;4942464;29;20737;-77
2023/07/03 13:46:52;;;;;;;14.95;6.55;;;;;;;;;;4941736;29;20419;-79
2023/07/03 13:49:18;;;;;;;9.70;6.30;;;;;;;;;;4926018;28;20051;-77
2023/07/03 13:51:45;;;;;;;16.42;6.28;;;;;;;;;;4934493;29;20055;-74
2023/07/03 13:54:12;;;;;;;13.98;7.03;;;;;;;;;;4942035;28;20046;-79
2023/07/03 13:56:38;;;;;;;16.00;6.65;;;;;;;;;;4931491;29;20034;-81
2023/07/03 13:59:05;;;;;;;13.65;6.88;;;;;;;;;;4924877;28;20418;-79
2023/07/03 14:01:33;;;;;;;15.35;6.10;;;;;;;;;;4932055;29;20039;-78
2023/07/03 14:04:00;;;;;;;12.05;5.75;;;;;;;;;;4933927;29;20035;-81
2023/07/03 14:06:26;;;;;;;19.17;5.95;;;;;;;;;;4937577;29;20217;-82
2023/07/03 14:08:53;;;;;;;20.95;6.35;;;;;;;;;;4952976;28;20027;-79
2023/07/03 14:11:19;;;;;;;12.32;5.85;;;;;;;;;;4943044;28;20115;-77
2023/07/03 14:13:46;;;;;;;13.43;6.90;;;;;;;;;;4947019;28;20601;-76
2023/07/03 14:16:13;;;;;;;15.88;6.68;;;;;;;;;;4945260;29;20031;-77
2023/07/03 14:18:39;;;;;;;11.57;6.80;;;;;;;;;;4950375;28;20610;-76
2023/07/03 14:21:07;;;;;;;16.10;5.90;;;;;;;;;;4953757;28;20035;-76
2023/07/03 14:23:34;;;;;;;17.10;6.60;;;;;;;;;;4953735;29;20031;-75
2023/07/03 14:26:04;;;;;;;13.77;6.43;;;;;;;;;;4947521;29;20027;-77
2023/07/03 14:28:30;;;;;;;;;;;;;;;;;;4948028;29;20031;-76
2023/07/03 14:30:56;;;;;;;11.40;6.10;;;;;;;;;;4939611;28;20287;-76
2023/07/03 14:33:21;;;;;;;14.63;6.55;;;;;;;;;;4930211;29;20043;-76
2023/07/03 14:35:48;;;;;;;12.70;7.40;;;;;;;;;;4949509;29;20027;-76
2023/07/03 14:38:13;;;;;;;16.45;5.88;;;;;;;;;;4948638;29;20030;-77
2023/07/03 14:40:40;;;;;;;11.32;6.38;;;;;;;;;;4946106;28;20078;-77
2023/07/03 14:43:07;;;;;;;13.15;6.20;;;;;;;;;;4932031;29;20114;-77
2023/07/03 14:45:33;;;;;;;12.27;5.85;;;;;;;;;;4944823;28;20170;-77
2023/07/03 14:47:58;;;;;;;14.00;6.38;;;;;;;;;;4946161;29;20122;-77